KNOW

Details ICAO KNOW
Name PORT ANGELES CGAS
Region United States
Timezone Unknown
Plans Departing 11
Arriving 25
Stats Elevation 13 ft / 4 m (AMSL)
Location 48.141300° -123.414000°
Runways 1
Magnetic Variation 15.833° E
Sunrise 2019-05-20 12:30:00 UTC / 2019-05-20 12:30:00 Local
Sunset 2019-05-21 03:53:13 UTC / 2019-05-21 03:53:13 Local
Advertisement - Login to hide

Runways

ID Width Length Bearing (true/mag) Surface Threshold Overrun Markings Lighting
07 151 ft / 46 m 4,488 ft / 1,368 m 93.55° / 77.72° ASPHALT 0 ft / 0 m 0 ft / 0 m APP EDGE THRESHOLD
25 151 ft / 46 m 4,488 ft / 1,368 m 273.57° / 257.74° ASPHALT 0 ft / 0 m 0 ft / 0 m APP EDGE THRESHOLD

Map

Weather


0- 5 10 15 20 25 30 35+ Temperature / °C

Clouds and Precipitation
Forecast for 2019-05-20 18:00 UTC. Updated 2 hours ago

Ground ~20,000 ft ~40,000 ft Winds

METAR

KNOW 201710Z AUTO 28006KT 4SM DZ SCT020 BKN030 OVC037 11/10 A2975 RMK AO2 P0002 T01060099

TAF

Not found

Frequencies

Unicom 122.98 MHz CTAF
Approach 118.20 MHz WHIDBEY APP
Warning: Do not use this data for real-world aviation or navigation. No guarantee of current accuracy is given.